createdAt,value
2022-08-05T00:00:16.272Z,4.93
2022-08-05T00:02:43.867Z,4.70
2022-08-05T00:08:02.376Z,4.70
2022-08-05T00:10:29.490Z,4.57
2022-08-05T00:12:57.084Z,4.70
2022-08-05T00:15:55.851Z,4.63
2022-08-05T00:18:21.776Z,4.50
2022-08-05T00:20:50.200Z,4.73
2022-08-05T00:23:17.115Z,4.73
2022-08-05T00:25:46.014Z,4.67
2022-08-05T00:28:13.395Z,4.33
2022-08-05T00:30:41.199Z,4.60
2022-08-05T00:36:16.322Z,4.70
2022-08-05T00:38:42.071Z,4.70
2022-08-05T00:41:11.572Z,4.50
2022-08-05T00:43:46.459Z,4.20
2022-08-05T00:46:14.121Z,4.10
2022-08-05T00:48:51.322Z,4.40
2022-08-05T00:51:50.342Z,4.20
2022-08-05T00:54:05.610Z,4.47
2022-08-05T00:56:32.279Z,4.20
2022-08-05T00:59:00.471Z,4.37
2022-08-05T01:01:42.527Z,4.23
2022-08-05T01:04:15.969Z,4.50
2022-08-05T01:06:48.882Z,4.50
2022-08-05T01:09:19.981Z,4.27
2022-08-05T01:11:49.067Z,4.07
2022-08-05T01:14:36.125Z,4.30
2022-08-05T01:17:06.951Z,4.33
2022-08-05T01:20:01.137Z,4.60
2022-08-05T01:22:31.865Z,4.00
2022-08-05T01:28:20.193Z,4.13
2022-08-05T01:31:13.551Z,4.07
2022-08-05T01:33:49.283Z,3.70
2022-08-05T01:36:21.036Z,4.00
2022-08-05T01:38:55.196Z,3.93
2022-08-05T01:41:22.162Z,4.30
2022-08-05T01:43:49.062Z,4.00
2022-08-05T01:46:41.463Z,3.70
2022-08-05T01:49:03.259Z,4.03
2022-08-05T01:51:51.783Z,3.97
2022-08-05T01:54:19.100Z,4.00
2022-08-05T01:58:10.381Z,3.70
2022-08-05T02:02:26.265Z,3.73
2022-08-05T02:04:56.720Z,3.83
2022-08-05T02:07:24.155Z,3.67
2022-08-05T02:09:53.405Z,3.87
2022-08-05T02:12:32.859Z,4.00
2022-08-05T02:15:05.774Z,3.63
2022-08-05T02:18:28.204Z,3.93
2022-08-05T02:20:26.753Z,3.90
2022-08-05T02:25:49.410Z,3.40
2022-08-05T02:31:02.725Z,3.67
2022-08-05T02:33:35.863Z,3.67
2022-08-05T02:36:05.419Z,3.43
2022-08-05T02:38:35.220Z,3.57
2022-08-05T02:41:06.386Z,3.17
2022-08-05T02:44:02.555Z,3.50
2022-08-05T02:46:28.932Z,3.60
2022-08-05T02:52:03.370Z,3.77
2022-08-05T02:54:35.740Z,4.10
2022-08-05T02:58:10.506Z,4.00
2022-08-05T03:00:12.486Z,3.80
2022-08-05T03:02:39.691Z,3.83
2022-08-05T03:05:07.984Z,3.60
2022-08-05T03:10:22.067Z,3.90
2022-08-05T03:12:51.801Z,4.00
2022-08-05T03:15:19.372Z,4.10
2022-08-05T03:17:46.249Z,3.90
2022-08-05T03:20:13.399Z,3.90
2022-08-05T03:22:44.353Z,3.67
2022-08-05T03:28:01.766Z,4.10
2022-08-05T03:30:33.513Z,4.50
2022-08-05T03:33:01.314Z,4.63
2022-08-05T03:35:28.850Z,5.43
2022-08-05T03:37:59.350Z,5.20
2022-08-05T03:40:32.364Z,6.00
2022-08-05T03:43:15.908Z,4.93
2022-08-05T03:45:55.315Z,4.97
2022-08-05T03:52:37.397Z,5.43
2022-08-05T03:55:52.915Z,4.70
2022-08-05T03:56:58.937Z,5.20
2022-08-05T04:02:17.549Z,4.60
2022-08-05T04:05:03.845Z,4.20
2022-08-05T04:07:30.492Z,5.90
2022-08-05T04:09:59.816Z,5.37
2022-08-05T04:15:15.568Z,9.07
2022-08-05T04:17:57.397Z,5.83
2022-08-05T04:20:27.102Z,6.67
2022-08-05T04:25:57.370Z,6.30
2022-08-05T04:28:30.577Z,5.90
2022-08-05T04:31:01.047Z,4.93
2022-08-05T04:36:44.669Z,4.80
2022-08-05T04:39:00.946Z,4.30
2022-08-05T04:41:36.620Z,3.93
2022-08-05T04:44:08.881Z,4.37
2022-08-05T04:46:36.709Z,4.40
2022-08-05T04:49:03.373Z,3.90
2022-08-05T04:51:30.521Z,3.90
2022-08-05T04:53:57.639Z,4.10
2022-08-05T04:56:34.525Z,4.27
2022-08-05T04:59:22.072Z,4.20
2022-08-05T05:02:07.136Z,3.80
2022-08-05T05:04:38.294Z,3.90
2022-08-05T05:07:10.910Z,4.40
2022-08-05T05:09:38.192Z,3.97
2022-08-05T05:12:06.328Z,3.97
2022-08-05T05:14:36.251Z,4.20
2022-08-05T05:19:47.468Z,4.00
2022-08-05T05:25:01.226Z,4.00
2022-08-05T05:30:31.291Z,4.10
2022-08-05T05:35:45.272Z,4.57
2022-08-05T05:40:56.366Z,4.23
2022-08-05T05:46:13.668Z,4.07
2022-08-05T05:51:29.235Z,4.07
2022-08-05T05:57:00.314Z,3.83
2022-08-05T05:59:28.694Z,3.80
2022-08-05T06:01:57.668Z,3.80
2022-08-05T06:04:25.150Z,3.80
2022-08-05T06:06:51.972Z,3.87
2022-08-05T06:09:26.658Z,3.63
2022-08-05T06:14:49.985Z,4.13
2022-08-05T06:17:22.609Z,3.83
2022-08-05T06:19:56.970Z,3.93
2022-08-05T06:22:29.680Z,3.87
2022-08-05T06:24:56.486Z,4.00
2022-08-05T06:28:11.224Z,3.50
2022-08-05T06:32:59.950Z,3.73
2022-08-05T06:38:11.826Z,3.40
2022-08-05T06:43:57.605Z,3.20
2022-08-05T06:46:10.381Z,3.30
2022-08-05T06:48:55.713Z,3.20
2022-08-05T06:54:08.407Z,3.47
2022-08-05T06:59:22.845Z,3.50
2022-08-05T07:01:52.763Z,2.90
2022-08-05T07:04:19.917Z,3.40
2022-08-05T07:06:47.040Z,3.20
2022-08-05T07:09:17.210Z,3.27
2022-08-05T07:11:51.459Z,3.07
2022-08-05T07:14:37.780Z,3.13
2022-08-05T07:18:01.084Z,3.23
2022-08-05T07:22:42.223Z,3.47
2022-08-05T07:27:58.558Z,3.40
2022-08-05T07:30:33.688Z,3.30
2022-08-05T07:33:36.890Z,3.50
2022-08-05T07:36:21.135Z,3.60
2022-08-05T07:38:54.798Z,3.53
2022-08-05T07:42:13.130Z,3.60
2022-08-05T07:44:14.274Z,4.03
2022-08-05T07:46:49.294Z,3.43
2022-08-05T07:49:18.168Z,3.50
2022-08-05T07:51:53.706Z,3.27
2022-08-05T07:54:31.412Z,3.20
2022-08-05T07:57:17.554Z,3.30
2022-08-05T07:59:48.889Z,2.97
2022-08-05T08:02:17.617Z,3.27
2022-08-05T08:04:45.677Z,3.13
2022-08-05T08:07:12.858Z,3.00
2022-08-05T08:09:39.595Z,2.97
2022-08-05T08:12:14.656Z,3.30
2022-08-05T08:14:47.104Z,3.10
2022-08-05T08:17:16.096Z,3.20
2022-08-05T08:20:21.965Z,3.30
2022-08-05T08:22:35.130Z,2.90
2022-08-05T08:25:03.458Z,2.93
2022-08-05T08:27:45.099Z,2.73
2022-08-05T08:30:29.612Z,2.93
2022-08-05T08:33:04.685Z,2.93
2022-08-05T08:35:41.443Z,3.00
2022-08-05T08:38:35.282Z,3.00
2022-08-05T08:45:24.311Z,3.00
2022-08-05T08:46:37.277Z,2.97
2022-08-05T08:50:13.096Z,3.23
2022-08-05T08:54:54.896Z,2.87
2022-08-05T08:57:24.603Z,3.13
2022-08-05T09:00:10.039Z,3.20
2022-08-05T09:05:38.482Z,3.30
2022-08-05T09:08:09.794Z,3.30
2022-08-05T09:10:36.756Z,3.20
2022-08-05T09:15:51.972Z,3.33
2022-08-05T09:18:18.680Z,3.20
2022-08-05T09:20:47.912Z,3.00
2022-08-05T09:23:21.681Z,3.10
2022-08-05T09:26:03.830Z,2.90
2022-08-05T09:28:33.814Z,2.73
2022-08-05T09:31:23.011Z,2.63
2022-08-05T09:33:52.407Z,2.70
2022-08-05T09:36:20.595Z,3.20
2022-08-05T09:38:57.420Z,2.97
2022-08-05T09:41:24.202Z,2.50
2022-08-05T09:43:52.601Z,2.60
2022-08-05T09:49:22.713Z,3.10
2022-08-05T09:55:55.232Z,2.77
2022-08-05T10:00:36.483Z,2.77
2022-08-05T10:06:07.561Z,2.87
2022-08-05T10:08:42.983Z,2.50
2022-08-05T10:11:18.278Z,2.70
2022-08-05T10:13:48.377Z,2.70
2022-08-05T10:16:52.996Z,2.57
2022-08-05T10:22:04.652Z,2.80
2022-08-05T10:24:32.328Z,2.60
2022-08-05T10:27:01.604Z,2.50
2022-08-05T10:30:41.969Z,2.90
2022-08-05T10:32:53.607Z,2.87
2022-08-05T10:35:07.713Z,2.60
2022-08-05T10:37:40.423Z,2.50
2022-08-05T10:43:23.300Z,2.80
2022-08-05T10:46:06.774Z,2.50
2022-08-05T10:48:52.499Z,2.70
2022-08-05T10:54:28.342Z,2.70
2022-08-05T10:56:58.715Z,2.50
2022-08-05T11:00:02.840Z,2.60
2022-08-05T11:04:58.823Z,2.60
2022-08-05T11:07:33.056Z,2.20
2022-08-05T11:10:29.185Z,2.60
2022-08-05T11:12:56.742Z,2.60
2022-08-05T11:15:43.962Z,2.30
2022-08-05T11:18:23.618Z,2.70
2022-08-05T11:20:51.727Z,2.70
2022-08-05T11:26:16.530Z,2.67
2022-08-05T11:28:56.400Z,2.60
2022-08-05T11:31:58.825Z,2.40
2022-08-05T11:38:28.239Z,2.60
2022-08-05T11:42:40.540Z,3.00
2022-08-05T11:47:54.766Z,2.90
2022-08-05T11:50:21.827Z,3.00
2022-08-05T11:52:51.086Z,2.87
2022-08-05T11:55:19.931Z,2.73
2022-08-05T11:58:08.231Z,2.70
2022-08-05T13:29:37.830Z,2.27
2022-08-05T13:32:05.841Z,2.67
2022-08-05T13:34:33.070Z,2.50
2022-08-05T13:37:00.598Z,2.30
2022-08-05T13:40:14.979Z,2.30
2022-08-05T13:42:15.249Z,2.70
2022-08-05T13:44:45.516Z,2.63
2022-08-05T13:49:59.603Z,2.60
2022-08-05T13:52:29.077Z,2.50
2022-08-05T13:55:02.196Z,2.63
2022-08-05T13:57:50.886Z,2.73
2022-08-05T14:00:26.793Z,2.80
2022-08-05T14:02:55.892Z,2.83
2022-08-05T14:05:48.243Z,2.40
2022-08-05T14:10:59.771Z,2.20
2022-08-05T14:13:42.392Z,2.20
2022-08-05T14:16:11.792Z,2.43
2022-08-05T14:18:43.957Z,2.30
2022-08-05T14:22:08.737Z,2.40
2022-08-05T14:23:57.905Z,2.90
2022-08-05T14:26:38.339Z,2.50
2022-08-05T14:32:12.272Z,2.10
2022-08-05T14:34:43.137Z,2.50
2022-08-05T14:37:13.294Z,2.63
2022-08-05T14:42:25.134Z,2.80
2022-08-05T14:44:52.402Z,2.60
2022-08-05T14:48:03.161Z,2.37
2022-08-05T14:50:17.714Z,2.30
2022-08-05T14:52:53.163Z,2.20
2022-08-05T14:55:38.630Z,2.67
2022-08-05T14:58:12.153Z,2.60
2022-08-05T15:03:25.122Z,2.30
2022-08-05T15:06:08.184Z,2.23
2022-08-05T15:09:01.279Z,2.30
2022-08-05T15:11:52.942Z,2.53
2022-08-05T15:14:12.408Z,2.60
2022-08-05T15:19:48.972Z,2.57
2022-08-05T15:22:16.571Z,2.70
2022-08-05T15:24:44.912Z,4.20
2022-08-05T15:27:12.401Z,4.97
2022-08-05T15:32:28.639Z,6.10
2022-08-05T15:38:34.198Z,5.50
2022-08-05T15:40:59.532Z,5.37
2022-08-05T15:43:20.187Z,5.33
2022-08-05T15:45:47.650Z,5.23
2022-08-05T15:48:15.380Z,5.73
2022-08-05T15:50:43.546Z,21.67
2022-08-05T15:53:12.737Z,12.03
2022-08-05T15:56:02.375Z,7.07
2022-08-05T16:01:17.262Z,13.67
2022-08-05T16:03:50.274Z,5.90
2022-08-05T16:06:19.594Z,6.77
2022-08-05T16:08:50.265Z,5.23
2022-08-05T16:11:21.012Z,5.27
2022-08-05T16:14:05.627Z,5.40
2022-08-05T16:16:33.348Z,5.73
2022-08-05T16:19:00.336Z,6.73
2022-08-05T16:22:00.220Z,5.43
2022-08-05T16:24:35.861Z,5.30
2022-08-05T16:27:01.873Z,6.97
2022-08-05T16:29:31.243Z,5.27
2022-08-05T16:32:05.222Z,5.57
2022-08-05T16:34:32.242Z,5.23
2022-08-05T16:36:58.965Z,5.83
2022-08-05T16:40:06.117Z,5.10
2022-08-05T16:42:17.550Z,4.87
2022-08-05T16:44:54.393Z,5.00
2022-08-05T16:47:28.543Z,5.47
2022-08-05T16:52:47.930Z,8.10
2022-08-05T16:55:15.187Z,7.23
2022-08-05T16:57:53.446Z,17.10
2022-08-05T17:03:19.582Z,6.00
2022-08-05T17:05:51.803Z,6.60
2022-08-05T17:08:35.986Z,6.77
2022-08-05T17:11:12.561Z,6.50
2022-08-05T17:13:43.535Z,7.20
2022-08-05T17:16:29.763Z,7.20
2022-08-05T17:18:57.512Z,25.33
2022-08-05T17:21:24.465Z,8.33
2022-08-05T17:24:05.229Z,7.67
2022-08-05T17:26:39.319Z,7.47
2022-08-05T17:29:10.227Z,6.60
2022-08-05T17:31:41.284Z,8.77
2022-08-05T17:34:30.199Z,6.67
2022-08-05T17:37:00.608Z,7.20
2022-08-05T17:39:34.020Z,6.30
2022-08-05T17:42:17.324Z,6.27
2022-08-05T17:44:50.507Z,4.80
2022-08-05T17:47:22.267Z,7.20
2022-08-05T17:49:52.039Z,6.47
2022-08-05T17:52:30.243Z,7.10
2022-08-05T17:57:48.487Z,6.83
2022-08-05T18:00:15.606Z,4.50
2022-08-05T18:02:42.413Z,4.20
2022-08-05T18:05:10.324Z,4.77
2022-08-05T18:07:44.088Z,4.33
2022-08-05T18:10:14.084Z,4.87
2022-08-05T18:12:48.653Z,4.73
2022-08-05T18:15:15.401Z,5.40
2022-08-05T18:18:00.559Z,5.17
2022-08-05T18:20:31.634Z,5.57
2022-08-05T18:23:00.719Z,5.63
2022-08-05T18:25:39.084Z,5.63
2022-08-05T18:28:06.961Z,6.00
2022-08-05T18:30:34.696Z,6.43
2022-08-05T18:33:01.981Z,6.70
2022-08-05T18:36:01.422Z,6.80
2022-08-05T18:38:19.101Z,6.90
2022-08-05T18:41:54.956Z,6.70
2022-08-05T18:43:42.960Z,5.60
2022-08-05T18:49:19.951Z,5.60
2022-08-05T18:52:08.625Z,4.97
2022-08-05T18:54:36.063Z,5.00
2022-08-05T19:00:01.702Z,5.37
2022-08-05T19:02:30.698Z,5.27
2022-08-05T19:05:02.291Z,5.63
2022-08-05T19:07:50.197Z,5.50
2022-08-05T19:10:28.055Z,5.67
2022-08-05T19:12:56.450Z,5.67
2022-08-05T19:15:57.411Z,5.03
2022-08-05T19:20:59.776Z,5.03
2022-08-05T19:24:07.483Z,5.60
2022-08-05T19:26:19.072Z,5.20
2022-08-05T19:31:31.185Z,5.83
2022-08-05T19:34:12.250Z,6.27
2022-08-05T19:36:45.549Z,6.37
2022-08-05T19:42:08.092Z,5.93
2022-08-05T19:44:45.016Z,5.73
2022-08-05T19:47:16.462Z,5.53
2022-08-05T19:52:32.442Z,5.90
2022-08-05T19:58:14.375Z,6.40
2022-08-05T20:00:39.459Z,6.17
2022-08-05T20:03:09.103Z,6.37
2022-08-05T20:05:50.033Z,6.03
2022-08-05T20:08:18.276Z,6.63
2022-08-05T20:10:49.977Z,7.03
2022-08-05T20:16:07.135Z,7.23
2022-08-05T20:18:37.089Z,8.43
2022-08-05T20:21:06.659Z,8.20
2022-08-05T20:26:27.509Z,8.63
2022-08-05T20:28:55.699Z,8.10
2022-08-05T20:31:36.960Z,8.33
2022-08-05T20:34:12.867Z,7.83
2022-08-05T20:36:49.595Z,7.73
2022-08-05T20:39:18.542Z,7.70
2022-08-05T20:41:47.825Z,7.70
2022-08-05T20:44:17.753Z,7.20
2022-08-05T20:46:48.117Z,7.40
2022-08-05T20:49:24.545Z,7.27
2022-08-05T20:51:54.014Z,7.53
2022-08-05T20:54:21.429Z,7.77
2022-08-05T20:56:48.926Z,8.03
2022-08-05T20:59:26.690Z,7.57
2022-08-05T21:04:47.814Z,8.17
2022-08-05T21:07:17.856Z,7.83
2022-08-05T21:09:50.274Z,8.33
2022-08-05T21:12:21.741Z,9.10
2022-08-05T21:14:53.650Z,8.23
2022-08-05T21:17:24.323Z,8.77
2022-08-05T21:19:55.790Z,9.13
2022-08-05T21:22:25.705Z,9.53
2022-08-05T21:24:54.853Z,10.47
2022-08-05T21:27:25.057Z,11.13
2022-08-05T21:29:55.510Z,10.73
2022-08-05T21:32:26.979Z,11.60
2022-08-05T21:35:08.228Z,11.10
2022-08-05T21:37:52.627Z,10.90
2022-08-05T21:40:20.122Z,10.57
2022-08-05T21:42:51.589Z,11.40
2022-08-05T21:45:24.929Z,10.53
2022-08-05T21:48:08.226Z,9.77
2022-08-05T21:50:35.107Z,9.90
2022-08-05T21:53:16.293Z,10.23
2022-08-05T21:56:05.395Z,10.23
2022-08-05T21:58:32.852Z,10.10
2022-08-05T22:01:00.377Z,10.03
2022-08-05T22:03:48.538Z,9.70
2022-08-05T22:09:01.120Z,9.17
2022-08-05T22:11:35.023Z,9.77
2022-08-05T22:14:35.547Z,8.73
2022-08-05T22:16:56.943Z,9.53
2022-08-05T22:20:01.194Z,9.23
2022-08-05T22:22:16.592Z,9.23
2022-08-05T22:25:18.167Z,9.13
2022-08-05T22:30:56.214Z,8.77
2022-08-05T22:33:57.662Z,8.07
2022-08-05T22:36:17.114Z,8.10
2022-08-05T22:38:48.331Z,8.50
2022-08-05T22:42:05.401Z,8.70
2022-08-05T22:44:08.221Z,8.47
2022-08-05T22:46:40.047Z,8.00
2022-08-05T22:52:07.642Z,8.10
2022-08-05T22:54:46.657Z,7.00
2022-08-05T22:57:18.500Z,7.30
2022-08-05T23:02:30.773Z,7.80
2022-08-05T23:05:01.635Z,7.43
2022-08-05T23:07:44.748Z,6.87
2022-08-05T23:12:57.544Z,6.30
2022-08-05T23:15:29.513Z,6.13
2022-08-05T23:18:00.532Z,5.70
2022-08-05T23:23:17.437Z,5.43
2022-08-05T23:25:53.156Z,4.93
2022-08-05T23:28:22.951Z,4.77
2022-08-05T23:34:04.761Z,5.00
2022-08-05T23:36:28.239Z,4.70
2022-08-05T23:38:55.375Z,4.90
2022-08-05T23:41:22.569Z,4.83
2022-08-05T23:44:04.646Z,4.93
2022-08-05T23:46:37.609Z,4.60
2022-08-05T23:49:15.850Z,5.00
2022-08-05T23:54:49.455Z,4.37
2022-08-05T23:57:16.982Z,4.03
